Time;durP1;ratioP1;P1;durP2;ratioP2;P2;SDS_P1;SDS_P2;PMS_P1;PMS_P2;Temp;Humidity;BMP_temperature;BMP_pressure;BME280_temperature;BME280_humidity;BME280_pressure;Samples;Min_cycle;Max_cycle;Signal;HPM_P1;HPM_P2
2022/06/20 00:01:16;;;;;;;2.30;1.67;;;;;;;23.90;41.24;101065.34;5085537;27;20402;-70
2022/06/20 00:03:48;;;;;;;1.98;1.70;;;;;;;23.87;41.00;101063.13;5084773;28;20498;-67
2022/06/20 00:06:17;;;;;;;2.17;2.00;;;;;;;23.82;41.41;101063.03;5081117;28;20415;-70
2022/06/20 00:08:44;;;;;;;1.75;1.52;;;;;;;23.76;41.05;101064.03;5085909;28;20497;-71
2022/06/20 00:11:14;;;;;;;1.50;1.40;;;;;;;23.67;41.43;101053.63;5082981;28;20556;-69
2022/06/20 00:13:44;;;;;;;2.40;1.63;;;;;;;23.54;41.75;101043.16;5085916;28;20851;-70
2022/06/20 00:18:07;;;;;;;2.75;1.73;;;;;;;23.49;41.75;101040.38;5090035;27;20471;-69
2022/06/20 00:20:34;;;;;;;1.95;1.75;;;;;;;23.48;41.78;101041.44;5066277;28;20498;-71
2022/06/20 00:23:01;;;;;;;1.80;1.65;;;;;;;23.49;41.94;101040.38;5064883;28;20419;-72
2022/06/20 00:27:27;;;;;;;2.17;1.80;;;;;;;23.44;41.58;101035.72;5107747;27;20986;-72
2022/06/20 00:29:54;;;;;;;1.90;1.60;;;;;;;23.43;41.69;101033.25;5087747;28;20429;-72
2022/06/20 00:32:21;;;;;;;2.25;1.70;;;;;;;23.42;41.93;101042.44;5080670;28;20521;-71
2022/06/20 00:34:48;;;;;;;2.40;1.80;;;;;;;23.41;41.94;101036.22;5087093;28;20414;-70
2022/06/20 00:37:20;;;;;;;1.48;1.38;;;;;;;23.40;41.63;101039.16;5085341;28;20426;-71
2022/06/20 00:39:49;;;;;;;1.77;1.60;;;;;;;23.35;41.64;101030.97;5097012;28;20413;-72
2022/06/20 00:44:14;;;;;;;2.85;1.55;;;;;;;23.33;41.69;101027.69;5107386;27;20406;-68
2022/06/20 00:46:45;;;;;;;1.50;1.40;;;;;;;23.29;41.84;101032.78;5086157;28;20799;-69
2022/06/20 00:49:17;;;;;;;2.45;1.65;;;;;;;23.27;41.76;101027.59;5085215;28;20512;-69
2022/06/20 00:51:50;;;;;;;2.22;1.60;;;;;;;23.24;41.67;101035.38;5086270;28;20424;-70
2022/06/20 00:54:23;;;;;;;1.90;1.50;;;;;;;23.21;41.33;101034.00;5086581;28;20413;-70
2022/06/20 00:56:55;;;;;;;3.50;1.60;;;;;;;23.17;41.76;101032.03;5086407;28;20521;-69
2022/06/20 00:59:29;;;;;;;2.60;1.67;;;;;;;23.14;41.72;101037.94;5086547;28;20418;-69
2022/06/20 01:01:57;;;;;;;1.70;1.40;;;;;;;23.09;41.79;101038.69;5080185;28;20845;-69
2022/06/20 01:04:30;;;;;;;2.23;1.50;;;;;;;23.03;41.88;101043.16;5078976;28;20429;-68
2022/06/20 01:06:58;;;;;;;1.90;1.52;;;;;;;22.99;41.77;101031.16;5084995;28;20566;-68
2022/06/20 01:09:30;;;;;;;2.00;1.42;;;;;;;22.97;42.06;101033.31;5083493;28;20505;-70
2022/06/20 01:11:58;;;;;;;1.80;1.70;;;;;;;22.96;41.88;101031.69;5084759;28;20587;-70
2022/06/20 01:14:33;;;;;;;1.55;1.45;;;;;;;22.95;42.06;101027.31;5085471;28;20421;-70
2022/06/20 01:17:02;;;;;;;2.50;1.40;;;;;;;22.93;42.02;101034.06;5082578;28;20420;-68
2022/06/20 01:19:45;;;;;;;2.55;1.55;;;;;;;22.85;41.88;101028.00;5085160;28;20942;-70
2022/06/20 01:22:24;;;;;;;3.78;1.70;;;;;;;22.79;41.93;101033.53;5084394;28;20432;-71
2022/06/20 01:27:44;;;;;;;1.70;1.60;;;;;;;22.72;42.30;101025.56;5067627;27;20404;-68
2022/06/20 01:30:13;;;;;;;1.50;1.40;;;;;;;22.71;42.40;101015.84;5058689;28;20506;-70
2022/06/20 01:32:41;;;;;;;2.80;1.45;;;;;;;22.71;42.09;101018.56;5054419;28;20494;-70
2022/06/20 01:35:12;;;;;;;2.00;1.80;;;;;;;22.67;42.43;101020.06;5057896;28;20829;-70
2022/06/20 01:39:27;;;;;;;1.50;1.40;;;;;;;22.63;42.15;101017.03;5085467;27;20461;-70
2022/06/20 01:44:42;;;;;;;2.20;1.80;;;;;;;22.55;42.23;101022.84;5081077;28;20410;-70
2022/06/20 01:47:09;;;;;;;2.33;2.10;;;;;;;22.49;42.23;101011.13;5076988;28;20507;-69
2022/06/20 01:49:37;;;;;;;2.28;1.40;;;;;;;22.46;42.21;101019.72;5080600;28;20422;-69
2022/06/20 01:52:08;;;;;;;1.85;1.55;;;;;;;22.45;42.22;101014.56;5082341;28;20418;-69
2022/06/20 01:54:40;;;;;;;1.60;1.50;;;;;;;22.42;42.50;101020.44;5080290;28;20410;-69
2022/06/20 01:57:09;;;;;;;2.20;1.67;;;;;;;22.38;42.30;101021.97;5079820;28;20425;-69
2022/06/20 01:59:43;;;;;;;2.63;1.40;;;;;;;22.36;42.51;101016.81;5078382;28;20500;-69
2022/06/20 02:02:11;;;;;;;1.92;1.50;;;;;;;22.33;42.41;101022.72;5083509;28;20424;-70
2022/06/20 02:04:38;;;;;;;1.40;1.30;;;;;;;22.30;42.42;101024.00;5080530;28;20414;-68
2022/06/20 02:07:09;;;;;;;1.50;1.40;;;;;;;22.29;42.49;101025.09;5078811;28;20455;-70
2022/06/20 02:09:38;;;;;;;1.67;1.58;;;;;;;22.27;42.50;101032.63;5080502;28;20433;-68
2022/06/20 02:12:07;;;;;;;1.98;1.40;;;;;;;22.28;42.33;101028.03;5079402;28;20494;-69
2022/06/20 02:14:38;;;;;;;1.80;1.45;;;;;;;22.27;42.54;101035.31;5078855;28;20425;-67
2022/06/20 02:17:09;;;;;;;2.40;1.60;;;;;;;22.26;42.69;101025.56;5081054;28;20422;-70
2022/06/20 02:20:45;;;;;;;3.08;1.45;;;;;;;22.26;42.70;101022.00;5108235;27;20405;-71
2022/06/20 02:23:15;;;;;;;2.58;1.42;;;;;;;22.25;42.75;101028.47;5100876;28;20410;-71
2022/06/20 02:25:46;;;;;;;2.00;1.40;;;;;;;22.24;42.67;101022.25;5098430;28;20423;-71
2022/06/20 02:28:18;;;;;;;1.90;1.70;;;;;;;22.22;42.58;101018.97;5100800;28;20492;-71
2022/06/20 02:30:45;;;;;;;2.00;1.52;;;;;;;22.21;42.63;101022.72;5093985;28;20863;-69
2022/06/20 02:33:16;;;;;;;2.22;1.42;;;;;;;22.19;42.63;101024.03;5098526;28;20491;-69
2022/06/20 02:35:45;;;;;;;1.90;1.38;;;;;;;22.16;42.90;101022.63;5097064;28;20466;-71
2022/06/20 02:38:12;;;;;;;3.08;1.70;;;;;;;22.09;42.92;101030.88;5101427;28;20489;-70
2022/06/20 02:40:41;;;;;;;2.30;2.00;;;;;;;22.09;43.04;101033.56;5097525;28;20495;-71
2022/06/20 02:43:13;;;;;;;2.75;1.60;;;;;;;22.08;43.12;101026.53;5099919;28;20418;-72
2022/06/20 02:45:41;;;;;;;2.30;1.65;;;;;;;22.06;42.87;101031.34;5097227;28;20420;-73
2022/06/20 02:48:11;;;;;;;1.83;1.63;;;;;;;22.07;42.85;101032.16;5100950;28;20913;-71
2022/06/20 02:50:45;;;;;;;4.60;1.63;;;;;;;22.06;42.67;101036.75;5096627;28;20503;-69
2022/06/20 02:53:17;;;;;;;1.65;1.50;;;;;;;22.06;42.67;101039.44;5100171;28;20922;-71
2022/06/20 02:55:46;;;;;;;3.05;1.70;;;;;;;22.12;42.91;101033.06;5101330;28;20404;-72
2022/06/20 02:58:20;;;;;;;1.97;1.70;;;;;;;22.15;42.67;101034.50;5100104;28;20423;-69
2022/06/20 03:00:53;;;;;;;2.33;1.70;;;;;;;22.18;42.58;101042.09;5101067;28;20413;-71
2022/06/20 03:03:26;;;;;;;3.63;2.00;;;;;;;22.23;42.65;101039.50;5098550;28;20491;-70
2022/06/20 03:05:53;;;;;;;2.30;1.75;;;;;;;22.29;42.76;101043.16;5099053;28;20497;-70
2022/06/20 03:08:22;;;;;;;2.80;1.92;;;;;;;22.36;42.69;101030.31;5103276;28;20412;-72
2022/06/20 03:10:51;;;;;;;3.42;1.80;;;;;;;22.45;42.26;101028.06;5100413;28;20493;-70
2022/06/20 03:13:20;;;;;;;3.13;1.77;;;;;;;22.51;42.35;101027.13;5097853;28;20584;-70
2022/06/20 03:15:50;;;;;;;2.63;1.60;;;;;;;22.57;42.53;101034.25;5101483;28;20510;-71
2022/06/20 03:18:21;;;;;;;2.60;1.83;;;;;;;22.61;42.22;101032.69;5099540;28;20422;-71
2022/06/20 03:20:48;;;;;;;5.13;1.90;;;;;;;22.64;42.34;101029.50;5102120;28;20535;-71
2022/06/20 03:23:21;;;;;;;3.40;1.95;;;;;;;22.65;42.51;101039.25;5100626;28;20503;-69
2022/06/20 03:25:51;;;;;;;2.50;1.90;;;;;;;22.65;42.13;101043.81;5100869;28;20418;-71
2022/06/20 03:28:20;;;;;;;2.65;2.13;;;;;;;22.71;42.56;101037.47;5102994;28;20495;-69
2022/06/20 03:30:49;;;;;;;5.78;2.20;;;;;;;22.73;42.33;101046.16;5090087;28;20425;-69
2022/06/20 03:33:16;;;;;;;5.05;2.10;;;;;;;22.75;42.50;101052.13;5081010;28;20431;-66
2022/06/20 03:35:48;;;;;;;2.80;1.77;;;;;;;22.85;42.58;101040.66;5088464;28;20599;-69
2022/06/20 03:38:16;;;;;;;2.47;1.90;;;;;;;22.96;42.48;101045.19;5084971;28;20415;-70
2022/06/20 03:40:44;;;;;;;6.03;2.47;;;;;;;23.09;42.40;101044.91;5081781;28;20508;-69
2022/06/20 03:43:16;;;;;;;4.22;2.38;;;;;;;23.21;42.19;101036.72;5087722;28;20941;-67
2022/06/20 03:45:49;;;;;;;2.88;2.17;;;;;;;23.37;42.28;101053.16;5087242;28;20988;-69
2022/06/20 03:48:20;;;;;;;3.65;2.15;;;;;;;23.48;42.04;101039.56;5087391;28;20504;-67
2022/06/20 03:50:53;;;;;;;3.33;2.30;;;;;;;23.62;41.62;101034.63;5086392;28;20413;-70
2022/06/20 03:53:25;;;;;;;2.45;2.00;;;;;;;23.76;41.42;101048.59;5082817;28;20510;-68
2022/06/20 03:55:59;;;;;;;2.73;2.00;;;;;;;23.93;40.24;101036.94;5084960;28;20790;-70
2022/06/20 03:58:31;;;;;;;4.97;1.90;;;;;;;24.10;39.89;101040.41;5087984;28;21012;-68
2022/06/20 04:01:03;;;;;;;5.22;2.83;;;;;;;24.19;38.92;101038.88;5085593;28;20439;-67
2022/06/20 04:03:35;;;;;;;3.60;1.90;;;;;;;24.41;37.72;101033.44;5081606;28;20417;-68
2022/06/20 04:06:09;;;;;;;2.60;1.80;;;;;;;24.61;37.26;101029.31;5079881;28;20413;-69
2022/06/20 04:11:35;;;;;;;3.22;1.85;;;;;;;24.98;36.63;101031.28;5077770;28;20406;-69
2022/06/20 04:14:09;;;;;;;5.18;2.00;;;;;;;25.16;36.07;101035.50;5082763;28;20494;-68
2022/06/20 04:16:41;;;;;;;4.15;2.90;;;;;;;25.43;35.55;101034.66;5074400;28;20415;-69
2022/06/20 04:19:14;;;;;;;5.47;2.50;;;;;;;25.64;35.35;101032.84;5076826;28;20513;-68
2022/06/20 04:21:47;;;;;;;3.13;2.83;;;;;;;25.80;35.09;101033.75;5062374;28;20475;-68
2022/06/20 04:24:21;;;;;;;3.60;2.30;;;;;;;26.03;34.29;101030.63;5069002;28;20796;-68
2022/06/20 04:26:55;;;;;;;4.10;2.10;;;;;;;26.29;33.79;101025.28;5061931;28;20429;-68
2022/06/20 04:29:28;;;;;;;4.63;3.00;;;;;;;26.63;33.21;101033.81;5069850;28;20407;-68
2022/06/20 04:32:01;;;;;;;3.67;2.00;;;;;;;26.98;32.28;101029.47;5070320;28;20437;-68
2022/06/20 04:34:34;;;;;;;3.05;2.00;;;;;;;27.30;31.89;101031.13;5073903;28;20439;-69
2022/06/20 04:37:12;;;;;;;3.88;1.98;;;;;;;27.53;31.44;101021.53;5079282;28;20421;-68
2022/06/20 04:39:46;;;;;;;4.78;2.20;;;;;;;27.76;31.03;101009.19;5080118;28;20921;-67
2022/06/20 04:42:18;;;;;;;3.17;2.05;;;;;;;28.01;31.13;101019.19;5070586;28;20419;-68
2022/06/20 04:44:52;;;;;;;3.40;2.10;;;;;;;28.17;30.90;101010.94;5069113;28;20796;-68
2022/06/20 04:47:33;;;;;;;3.63;2.10;;;;;;;28.46;30.37;101005.59;5066787;28;20415;-67
2022/06/20 04:50:00;;;;;;;3.38;2.40;;;;;;;28.96;30.12;100994.59;5073734;28;20419;-69
2022/06/20 04:52:30;;;;;;;5.10;2.30;;;;;;;29.67;29.33;100994.94;5069838;28;20417;-67
2022/06/20 04:54:58;;;;;;;6.68;2.22;;;;;;;30.17;27.94;100991.88;5072856;28;20426;-68
2022/06/20 04:57:28;;;;;;;6.03;2.55;;;;;;;30.66;27.39;100996.88;5068860;28;20499;-68
2022/06/20 05:00:01;;;;;;;3.22;2.17;;;;;;;31.15;26.37;100985.66;5067669;28;20509;-68
2022/06/20 05:02:29;;;;;;;4.03;2.25;;;;;;;31.60;25.95;100994.13;5069253;28;20415;-68
2022/06/20 05:04:59;;;;;;;5.25;2.20;;;;;;;32.10;25.48;100980.47;5068799;28;20518;-68
2022/06/20 05:07:29;;;;;;;2.95;1.95;;;;;;;32.61;25.19;100978.50;5071171;28;20426;-67
2022/06/20 05:10:03;;;;;;;5.65;2.30;;;;;;;32.65;24.70;100973.19;5069184;28;20490;-68
2022/06/20 05:12:37;;;;;;;3.42;2.40;;;;;;;33.02;23.98;100971.94;5061070;28;20774;-68
2022/06/20 05:15:12;;;;;;;3.20;2.10;;;;;;;33.46;23.63;100966.66;5061488;28;20422;-69
2022/06/20 05:17:41;;;;;;;3.50;2.37;;;;;;;33.97;23.54;100969.84;5066988;28;20848;-68
2022/06/20 05:20:19;;;;;;;2.53;2.22;;;;;;;34.31;23.18;100971.81;5063925;28;20936;-68
2022/06/20 05:22:51;;;;;;;2.95;2.40;;;;;;;34.30;23.41;100974.88;5067947;28;20413;-68
2022/06/20 05:25:22;;;;;;;2.35;1.85;;;;;;;33.79;24.02;100969.00;5068226;28;20415;-68
2022/06/20 05:27:53;;;;;;;2.78;2.05;;;;;;;33.44;24.47;100975.22;5068680;28;20422;-69
2022/06/20 05:30:25;;;;;;;2.20;2.00;;;;;;;33.77;24.02;100983.06;5069171;28;20973;-68
2022/06/20 05:32:59;;;;;;;2.78;1.80;;;;;;;33.53;24.24;100987.03;5069923;28;20849;-69
2022/06/20 05:35:31;;;;;;;3.17;2.03;;;;;;;33.32;24.75;100975.00;5078480;28;20420;-68
2022/06/20 05:38:03;;;;;;;4.03;2.07;;;;;;;33.15;25.16;100981.22;5077348;28;20421;-68
2022/06/20 05:40:37;;;;;;;4.25;1.98;;;;;;;33.63;24.96;100977.66;5084235;28;20496;-68
2022/06/20 05:43:06;;;;;;;3.80;2.20;;;;;;;33.99;24.53;100976.63;5078151;28;20511;-68
2022/06/20 05:45:34;;;;;;;4.35;3.05;;;;;;;34.64;24.11;100979.53;5081024;28;20420;-68
2022/06/20 05:48:07;;;;;;;4.30;1.90;;;;;;;35.13;23.28;100979.25;5078671;28;20428;-68
2022/06/20 05:50:42;;;;;;;4.47;2.85;;;;;;;35.21;23.04;100976.50;5082397;28;20879;-69
2022/06/20 05:53:14;;;;;;;3.45;2.60;;;;;;;35.31;23.31;100969.81;5081035;28;20421;-68
2022/06/20 05:55:44;;;;;;;2.28;1.80;;;;;;;35.66;23.00;100966.03;5080389;28;20418;-69
2022/06/20 05:58:18;;;;;;;4.22;2.17;;;;;;;36.13;22.29;100963.91;5068536;28;20988;-69
2022/06/20 06:00:48;;;;;;;2.90;2.17;;;;;;;36.59;21.77;100958.50;5068702;28;20947;-66
2022/06/20 06:03:19;;;;;;;6.60;2.80;;;;;;;36.88;21.52;100960.28;5068855;28;20980;-69
2022/06/20 06:05:49;;;;;;;4.82;2.47;;;;;;;37.19;21.40;100955.41;5073984;28;20492;-69
2022/06/20 06:08:23;;;;;;;4.72;2.30;;;;;;;37.52;21.22;100955.25;5074130;28;20413;-68
2022/06/20 06:11:03;;;;;;;3.00;2.10;;;;;;;37.73;20.42;100948.81;5072923;28;20405;-68
2022/06/20 06:13:38;;;;;;;2.50;2.20;;;;;;;38.05;20.24;100950.53;5080318;28;20452;-68
2022/06/20 06:19:07;;;;;;;2.55;2.33;;;;;;;38.27;20.08;100947.56;5066254;28;20421;-69
2022/06/20 06:21:36;;;;;;;3.53;2.50;;;;;;;38.65;19.70;100946.25;5079036;28;20430;-69
2022/06/20 06:24:06;;;;;;;3.28;2.42;;;;;;;39.03;19.27;100933.78;5079965;28;20517;-68
2022/06/20 06:26:35;;;;;;;4.63;2.70;;;;;;;39.39;19.07;100936.19;5073923;28;20411;-66
2022/06/20 06:29:02;;;;;;;4.20;2.50;;;;;;;39.66;18.44;100928.09;5078108;28;21420;-68
2022/06/20 06:31:38;;;;;;;3.28;2.63;;;;;;;39.55;18.13;100924.28;5072540;28;20870;-69
2022/06/20 06:34:14;;;;;;;4.63;2.70;;;;;;;39.90;18.23;100926.19;5064773;28;20449;-66
2022/06/20 06:36:46;;;;;;;5.07;3.00;;;;;;;40.14;17.93;100928.72;5068178;28;20417;-69
2022/06/20 06:39:17;;;;;;;3.80;2.40;;;;;;;40.07;18.14;100920.25;5067067;28;20498;-70
2022/06/20 06:41:46;;;;;;;2.33;2.03;;;;;;;39.95;18.51;100923.16;5068127;28;20509;-69
2022/06/20 06:44:17;;;;;;;3.88;2.40;;;;;;;39.18;19.38;100927.38;5069321;28;20418;-69
2022/06/20 06:46:49;;;;;;;5.72;2.30;;;;;;;38.30;19.86;100928.28;5069033;28;20607;-70
2022/06/20 06:49:24;;;;;;;5.85;2.50;;;;;;;38.00;20.27;100923.09;5073318;28;20402;-69
2022/06/20 06:52:00;;;;;;;2.97;2.28;;;;;;;37.99;20.36;100926.22;5074592;28;20493;-69
2022/06/20 06:54:46;;;;;;;3.63;2.30;;;;;;;37.73;20.88;100923.91;5073413;28;20415;-71
2022/06/20 06:57:20;;;;;;;4.35;2.08;;;;;;;37.62;19.94;100923.56;5073602;28;20406;-69
2022/06/20 06:59:53;;;;;;;2.97;2.40;;;;;;;37.23;20.13;100917.63;5081159;28;20800;-70
2022/06/20 07:02:23;;;;;;;3.37;2.07;;;;;;;36.88;21.09;100926.31;5081552;28;20420;-69
2022/06/20 07:04:56;;;;;;;2.63;2.30;;;;;;;36.42;21.22;100925.53;5077333;28;20415;-69
2022/06/20 07:07:34;;;;;;;5.18;2.35;;;;;;;36.03;21.93;100927.66;5081714;28;20506;-69
2022/06/20 07:10:02;;;;;;;2.97;2.20;;;;;;;35.76;22.06;100924.28;5082889;28;20441;-69
2022/06/20 07:12:36;;;;;;;4.38;2.28;;;;;;;35.60;22.12;100921.28;5084597;28;20496;-70
2022/06/20 07:15:08;;;;;;;3.97;2.37;;;;;;;35.31;22.92;100922.13;5082605;28;20492;-69
2022/06/20 07:17:41;;;;;;;3.00;2.30;;;;;;;35.15;23.15;100925.44;5086440;28;20417;-69
2022/06/20 07:20:10;;;;;;;3.25;2.22;;;;;;;35.06;22.87;100921.91;5075509;28;20431;-69
2022/06/20 07:22:40;;;;;;;3.45;2.20;;;;;;;34.85;23.22;100935.59;5078514;28;20414;-69
2022/06/20 07:25:15;;;;;;;4.68;2.30;;;;;;;34.69;23.48;100929.00;5071868;28;20414;-69
2022/06/20 07:27:50;;;;;;;4.50;2.50;;;;;;;34.55;23.65;100916.22;5072168;28;20866;-69
2022/06/20 07:30:20;;;;;;;4.07;2.40;;;;;;;34.54;23.95;100922.88;5073156;28;20423;-69
2022/06/20 07:32:52;;;;;;;4.45;2.42;;;;;;;34.48;24.28;100924.16;5084850;28;20496;-69
2022/06/20 07:35:24;;;;;;;4.28;2.53;;;;;;;34.30;24.20;100925.34;5078010;28;20963;-69
2022/06/20 07:37:57;;;;;;;4.50;2.35;;;;;;;33.99;24.07;100918.84;5073901;28;20919;-68
2022/06/20 07:40:26;;;;;;;4.17;2.40;;;;;;;33.85;24.58;100921.78;5081862;28;20513;-67
2022/06/20 07:43:00;;;;;;;4.05;2.30;;;;;;;33.91;24.74;100925.19;5076794;28;20484;-68
2022/06/20 07:45:30;;;;;;;5.27;2.47;;;;;;;33.93;24.71;100919.38;5073103;28;20796;-67
2022/06/20 07:48:03;;;;;;;6.70;3.13;;;;;;;33.86;24.75;100925.34;5084471;28;20412;-68
2022/06/20 07:50:35;;;;;;;2.67;2.47;;;;;;;33.85;24.51;100924.53;5073464;28;20920;-68
2022/06/20 07:53:11;;;;;;;4.20;3.80;;;;;;;33.71;24.23;100921.13;5075824;28;20538;-67
2022/06/20 07:55:42;;;;;;;4.50;2.22;;;;;;;33.63;23.77;100927.38;5072982;28;20506;-68
2022/06/20 07:58:14;;;;;;;4.32;2.05;;;;;;;33.52;23.90;100921.38;5084119;28;20591;-68
2022/06/20 08:00:45;;;;;;;3.08;2.30;;;;;;;33.53;24.37;100917.53;5073073;28;20426;-67
2022/06/20 08:03:23;;;;;;;4.30;2.20;;;;;;;33.34;24.63;100920.53;5075159;28;20903;-68
2022/06/20 08:05:57;;;;;;;2.70;1.90;;;;;;;33.06;24.71;100919.91;5072903;28;20417;-67
2022/06/20 08:08:29;;;;;;;2.97;1.83;;;;;;;32.91;24.74;100921.16;5083984;28;20415;-67
2022/06/20 08:11:02;;;;;;;2.20;1.95;;;;;;;32.60;24.71;100916.47;5073231;28;20457;-68
2022/06/20 08:13:36;;;;;;;3.00;1.80;;;;;;;32.58;25.55;100921.44;5071580;28;20571;-67
2022/06/20 08:16:09;;;;;;;2.30;1.70;;;;;;;32.30;25.43;100909.81;5085649;28;20968;-67
2022/06/20 08:18:38;;;;;;;1.93;1.70;;;;;;;32.17;25.04;100911.50;5083797;28;20415;-68
2022/06/20 08:21:11;;;;;;;2.50;1.60;;;;;;;32.14;24.45;100910.19;5071232;28;20554;-67
2022/06/20 08:23:44;;;;;;;1.75;1.50;;;;;;;32.13;23.99;100913.25;5064912;28;20781;-67
2022/06/20 08:26:17;;;;;;;3.50;1.70;;;;;;;32.20;24.38;100903.44;5077269;28;20954;-68
2022/06/20 08:28:48;;;;;;;2.20;1.40;;;;;;;31.79;24.67;100906.31;5077581;28;20414;-67
2022/06/20 08:31:20;;;;;;;3.40;1.50;;;;;;;31.80;24.32;100899.69;5077445;28;20967;-68
2022/06/20 08:33:55;;;;;;;2.43;1.40;;;;;;;31.49;24.46;100910.53;5071101;28;20482;-68
2022/06/20 08:36:27;;;;;;;2.53;1.50;;;;;;;31.36;24.15;100904.72;5084419;28;20409;-68
2022/06/20 08:39:02;;;;;;;2.25;1.42;;;;;;;31.39;24.73;100897.84;5091222;28;20501;-68
2022/06/20 08:42:02;;;;;;;2.08;1.30;;;;;;;31.17;24.44;100907.59;5091066;28;20965;-68
2022/06/20 08:45:02;;;;;;;3.17;1.67;;;;;;;31.11;25.42;100906.06;5060952;28;20498;-69
2022/06/20 08:48:09;;;;;;;1.83;1.33;;;;;;;31.10;24.93;100898.97;5035150;28;20967;-69
2022/06/20 08:51:14;;;;;;;3.20;1.60;;;;;;;31.45;25.63;100899.34;5086958;28;20405;-68
2022/06/20 08:54:27;;;;;;;1.47;1.37;;;;;;;31.66;24.50;100894.28;5066160;28;20413;-69
2022/06/20 08:57:02;;;;;;;2.50;1.60;;;;;;;31.80;24.80;100891.47;5029682;28;20993;-69
2022/06/20 08:59:48;;;;;;;2.60;1.60;;;;;;;31.98;25.40;100886.94;5070141;28;20425;-69
2022/06/20 09:02:29;;;;;;;3.60;1.90;;;;;;;32.12;25.74;100890.47;5070154;28;20426;-69
2022/06/20 09:05:21;;;;;;;2.10;1.73;;;;;;;32.24;25.16;100889.13;5070708;28;20403;-69
2022/06/20 09:08:17;;;;;;;2.63;1.90;;;;;;;32.40;24.77;100879.38;5062572;28;20496;-68
2022/06/20 09:11:03;;;;;;;3.30;1.70;;;;;;;32.34;24.63;100875.97;5062980;28;20845;-68
2022/06/20 09:13:53;;;;;;;2.47;1.80;;;;;;;32.29;24.97;100873.34;5069957;28;20506;-68
2022/06/20 09:16:34;;;;;;;5.22;1.90;;;;;;;32.30;24.84;100866.72;5070167;28;20442;-69
2022/06/20 09:19:21;;;;;;;2.10;1.70;;;;;;;32.24;24.85;100873.47;5069639;28;20495;-67
2022/06/20 09:22:07;;;;;;;3.05;2.00;;;;;;;32.46;25.23;100866.34;5069764;28;20430;-68
2022/06/20 09:24:50;;;;;;;4.90;2.00;;;;;;;32.60;24.34;100864.34;5069725;28;20509;-68
2022/06/20 09:27:32;;;;;;;3.88;2.28;;;;;;;32.63;23.91;100849.16;5069688;28;20486;-67
2022/06/20 09:30:10;;;;;;;1.83;1.50;;;;;;;32.66;23.40;100849.34;5069232;28;20435;-68
2022/06/20 09:33:18;;;;;;;4.77;1.83;;;;;;;32.68;23.68;100840.78;5069863;28;20446;-68
2022/06/20 09:36:19;;;;;;;4.72;2.03;;;;;;;32.83;23.51;100829.41;5069257;28;20502;-68
2022/06/20 09:39:09;;;;;;;2.90;1.75;;;;;;;32.88;23.46;100833.91;5067748;28;20411;-68
2022/06/20 09:41:43;;;;;;;3.65;2.10;;;;;;;32.92;23.11;100826.69;5069432;28;20449;-68
2022/06/20 09:44:24;;;;;;;3.00;1.90;;;;;;;33.00;23.06;100823.13;5069376;28;20421;-68
2022/06/20 09:47:01;;;;;;;7.97;2.90;;;;;;;33.06;23.16;100823.78;5069705;28;20497;-68
2022/06/20 09:49:38;;;;;;;3.92;2.17;;;;;;;33.00;23.65;100820.38;5069148;28;20415;-67
2022/06/20 09:52:11;;;;;;;2.42;1.60;;;;;;;33.01;22.28;100826.69;5069393;28;20861;-67
2022/06/20 09:54:49;;;;;;;3.37;1.80;;;;;;;32.91;22.58;100812.13;5069022;28;20801;-68
2022/06/20 09:57:30;;;;;;;3.47;1.83;;;;;;;33.00;23.06;100811.34;5069713;28;20502;-68
2022/06/20 10:00:06;;;;;;;2.28;1.60;;;;;;;32.99;22.79;100813.28;5069217;28;20498;-68
2022/06/20 10:02:42;;;;;;;2.95;1.77;;;;;;;33.00;21.42;100809.41;5077610;28;20504;-67
2022/06/20 10:05:20;;;;;;;1.80;1.40;;;;;;;33.06;21.21;100815.56;5077643;28;20412;-68
2022/06/20 10:07:53;;;;;;;2.45;1.27;;;;;;;33.09;20.28;100815.72;5069622;28;20499;-67
2022/06/20 10:10:29;;;;;;;1.73;1.30;;;;;;;33.07;20.29;100819.94;5071609;28;20497;-67
2022/06/20 10:13:03;;;;;;;3.10;1.35;;;;;;;33.02;20.31;100820.06;5080336;28;20493;-67
2022/06/20 10:15:40;;;;;;;1.33;1.23;;;;;;;33.02;20.08;100809.88;5069143;28;20415;-67
2022/06/20 10:18:18;;;;;;;1.35;1.25;;;;;;;33.05;19.85;100813.94;5083203;28;20486;-68
2022/06/20 10:20:53;;;;;;;3.15;1.38;;;;;;;33.06;20.50;100813.63;5069345;28;20494;-68
2022/06/20 10:23:55;;;;;;;1.50;1.23;;;;;;;32.83;20.57;100804.69;5087184;28;20400;-68
2022/06/20 10:26:43;;;;;;;1.63;1.27;;;;;;;32.78;20.42;100802.09;5087791;28;20853;-68
2022/06/20 10:29:21;;;;;;;1.85;1.45;;;;;;;32.92;20.12;100805.53;5079636;28;20419;-68
2022/06/20 10:32:03;;;;;;;2.45;1.52;;;;;;;32.95;20.17;100804.06;5088975;28;20418;-68
2022/06/20 10:34:41;;;;;;;4.50;2.10;;;;;;;33.03;21.27;100800.53;5089127;28;20500;-67
2022/06/20 10:37:24;;;;;;;4.22;2.10;;;;;;;33.09;22.11;100788.25;5074915;28;20431;-68
2022/06/20 10:39:57;;;;;;;2.60;1.92;;;;;;;33.18;21.35;100787.50;5074699;28;20411;-67
2022/06/20 10:42:31;;;;;;;2.67;1.70;;;;;;;33.23;21.98;100790.91;5072548;28;20517;-68
2022/06/20 10:45:30;;;;;;;3.45;1.83;;;;;;;33.23;23.11;100792.84;5073277;28;20417;-68
2022/06/20 10:48:39;;;;;;;2.25;1.60;;;;;;;33.25;22.59;100790.59;5093313;28;20479;-68
2022/06/20 10:51:13;;;;;;;2.17;1.67;;;;;;;33.19;21.51;100781.69;5061598;28;20494;-68
2022/06/20 10:53:56;;;;;;;3.35;1.70;;;;;;;33.14;22.36;100776.34;5072402;28;20407;-68
2022/06/20 10:56:33;;;;;;;3.40;1.60;;;;;;;33.11;22.28;100775.00;5072439;28;20573;-68
2022/06/20 10:59:12;;;;;;;1.92;1.40;;;;;;;33.10;21.38;100765.16;5072965;28;20861;-67
2022/06/20 11:01:49;;;;;;;2.95;1.55;;;;;;;33.10;22.03;100767.13;5072317;28;20426;-68
2022/06/20 11:04:38;;;;;;;1.77;1.50;;;;;;;33.16;22.38;100760.34;5072899;28;20411;-68
2022/06/20 11:07:24;;;;;;;2.70;1.73;;;;;;;33.21;22.72;100757.44;5072094;28;20492;-67
2022/06/20 11:10:03;;;;;;;1.92;1.67;;;;;;;33.22;21.18;100750.00;5072630;28;20407;-68
2022/06/20 11:12:46;;;;;;;2.95;1.90;;;;;;;33.27;21.66;100755.34;5072591;28;20411;-68
2022/06/20 11:15:21;;;;;;;1.83;1.73;;;;;;;33.25;21.17;100750.19;5068001;28;20499;-67
2022/06/20 11:17:54;;;;;;;2.00;1.80;;;;;;;33.30;20.85;100743.72;5078206;28;20423;-68
2022/06/20 11:20:31;;;;;;;1.92;1.63;;;;;;;33.32;20.61;100747.75;5084479;28;20518;-67
2022/06/20 11:23:07;;;;;;;2.40;1.60;;;;;;;33.36;21.09;100750.66;5086402;28;20516;-68
2022/06/20 11:25:47;;;;;;;3.30;1.60;;;;;;;33.40;21.58;100742.56;5081043;28;20420;-68
2022/06/20 11:28:36;;;;;;;2.40;1.50;;;;;;;33.46;21.60;100742.09;5092379;28;20693;-68
2022/06/20 11:31:11;;;;;;;1.60;1.50;;;;;;;33.50;21.76;100734.00;5080531;28;20403;-68
2022/06/20 11:34:02;;;;;;;3.38;1.60;;;;;;;33.52;22.38;100740.78;5073913;28;20415;-68
2022/06/20 11:36:39;;;;;;;2.97;1.85;;;;;;;33.59;22.19;100726.56;5071789;28;20427;-68
2022/06/20 11:39:19;;;;;;;2.13;1.52;;;;;;;33.57;21.42;100723.34;5072193;28;20433;-68
2022/06/20 11:41:50;;;;;;;3.10;1.60;;;;;;;33.54;21.96;100732.22;5071730;28;20513;-68
2022/06/20 11:44:40;;;;;;;2.05;1.50;;;;;;;33.31;21.33;100724.16;5072089;28;20415;-68
2022/06/20 11:47:30;;;;;;;1.85;1.70;;;;;;;33.45;21.81;100725.94;5071732;28;20501;-68
2022/06/20 11:50:36;;;;;;;2.05;1.60;;;;;;;33.46;21.76;100725.63;5071675;28;20411;-68
2022/06/20 11:53:18;;;;;;;2.10;1.50;;;;;;;33.40;21.20;100717.84;5071059;28;20426;-68
2022/06/20 11:55:49;;;;;;;2.03;1.60;;;;;;;33.32;20.87;100717.53;5058003;28;20407;-68
2022/06/20 11:58:22;;;;;;;2.05;1.70;;;;;;;33.21;21.83;100715.44;5071570;28;20418;-68
2022/06/20 12:00:52;;;;;;;1.85;1.70;;;;;;;33.30;21.70;100708.81;5071610;28;20411;-68
2022/06/20 12:03:27;;;;;;;2.65;1.55;;;;;;;33.20;21.40;100705.56;5071983;28;20514;-68
2022/06/20 12:06:02;;;;;;;3.05;1.90;;;;;;;33.19;22.16;100695.72;5071413;28;20411;-68
2022/06/20 12:08:40;;;;;;;4.03;1.70;;;;;;;33.29;21.52;100693.44;5071690;28;20525;-68
2022/06/20 12:11:16;;;;;;;2.55;1.85;;;;;;;33.33;21.87;100694.44;5058302;28;20414;-68
2022/06/20 12:13:53;;;;;;;1.60;1.48;;;;;;;33.35;21.79;100694.09;5071142;28;20419;-68
2022/06/20 12:16:43;;;;;;;2.13;1.63;;;;;;;33.37;21.83;100696.50;5071064;28;20430;-68
2022/06/20 12:25:04;;;;;;;3.03;1.60;;;;;;;33.35;21.32;100688.63;5070820;28;20472;-69